Back to Top

Language: 

My Weather Underground Personal Weather Station Historical Data with Graphs...

Delerius Weather Station Historical Data
Daily Summary for September 29, 2017 Units:  Metric    English   Both
« Previous Day
Next Day »
Daily Weekly Monthly Yearly Custom
  High: Low: Average:
Temperature: 17.5 °C 10 °C 13.8 °C
Dew Point: 14.2 °C 7.9 °C 11.3 °C
Humidity: 96 % 63 % 85 %
Wind Speed: 17.7 km/h 0 km/h 7.2 km/h
Wind Gust: 35.4 km/h - -
Wind:- - SSW
Pressure: 1015.5 hPa 1011.1 hPa -
Precipitation: 2.79 mm    
Historical Graphs
 
 
Tabular Data for September 29, 2017
Time Temperature Dew Point Pressure Wind Wind Speed Wind Gust Humidity Rainfall Rate (Hourly) solar Conditions
00:01 12.9 °C 10.6 °C 1015.5 hPa SSE 3.2 km/h 12.9 km/h 86 % 0 mm 0 W/m2
00:06 12.9 °C 10.6 °C 1015.5 hPa SSW 3.2 km/h 11.3 km/h 86 % 0 mm 0 W/m2
00:11 12.9 °C 10.6 °C 1015.5 hPa South 3.2 km/h 14.5 km/h 86 % 0 mm 0 W/m2
00:16 12.9 °C 10.6 °C 1015.1 hPa SSE 1.6 km/h 14.5 km/h 86 % 0 mm 0 W/m2
00:21 12.9 °C 10.6 °C 1015.1 hPa South 1.6 km/h 9.7 km/h 86 % 0 mm 0 W/m2
00:26 12.9 °C 10.6 °C 1015.1 hPa SSE 1.6 km/h 9.7 km/h 86 % 0 mm 0 W/m2
00:31 12.9 °C 10.6 °C 1014.8 hPa SSE 1.6 km/h 8 km/h 86 % 0 mm 0 W/m2
00:36 12.8 °C 10.7 °C 1014.8 hPa SE 1.6 km/h 9.7 km/h 87 % 0 mm 0 W/m2
00:41 12.8 °C 10.7 °C 1014.8 hPa ESE 3.2 km/h 9.7 km/h 87 % 0 mm 0 W/m2
00:46 12.8 °C 10.8 °C 1014.4 hPa ESE 3.2 km/h 11.3 km/h 88 % 0 mm 0 W/m2
00:51 12.8 °C 10.8 °C 1014.4 hPa ESE 3.2 km/h 11.3 km/h 88 % 0 mm 0 W/m2
00:56 12.8 °C 10.8 °C 1014.4 hPa ESE 3.2 km/h 11.3 km/h 88 % 0 mm 0 W/m2
01:01 12.8 °C 10.8 °C 1014.4 hPa ESE 3.2 km/h 9.7 km/h 88 % 0 mm 0 W/m2
01:06 12.8 °C 10.8 °C 1014.4 hPa ESE 1.6 km/h 9.7 km/h 88 % 0 mm 0 W/m2
01:11 12.8 °C 10.8 °C 1014.1 hPa East 1.6 km/h 6.4 km/h 88 % 0 mm 0 W/m2
01:16 12.7 °C 10.8 °C 1014.1 hPa ESE 1.6 km/h 9.7 km/h 88 % 0 mm 0 W/m2
01:21 12.7 °C 10.9 °C 1014.1 hPa SE 3.2 km/h 9.7 km/h 89 % 0 mm 0 W/m2
01:26 12.7 °C 10.9 °C 1014.1 hPa SE 4.8 km/h 14.5 km/h 89 % 0 mm 0 W/m2
01:31 12.7 °C 10.9 °C 1014.1 hPa SE 8 km/h 20.9 km/h 89 % 0 mm 0 W/m2
01:36 12.7 °C 10.9 °C 1014.1 hPa SSE 11.3 km/h 20.9 km/h 89 % 0 mm 0 W/m2
01:41 12.7 °C 10.9 °C 1014.1 hPa South 11.3 km/h 20.9 km/h 89 % 0 mm 0 W/m2
01:46 12.7 °C 11.1 °C 1014.1 hPa South 11.3 km/h 20.9 km/h 90 % 0 mm 0 W/m2
01:47 12.7 °C 11.1 °C 1014.1 hPa South 9.7 km/h 20.9 km/h 90 % 0 mm 0 W/m2
01:52 12.7 °C 11.1 °C 1013.8 hPa South 11.3 km/h 20.9 km/h 90 % 0 mm 0 W/m2
01:57 12.7 °C 10.9 °C 1013.8 hPa South 11.3 km/h 20.9 km/h 89 % 0 mm 0 W/m2
02:02 12.7 °C 11.1 °C 1013.8 hPa SSE 9.7 km/h 17.7 km/h 90 % 0 mm 0 W/m2
02:07 12.7 °C 11.1 °C 1013.8 hPa South 11.3 km/h 19.3 km/h 90 % 0 mm 0 W/m2
02:12 12.7 °C 11.1 °C 1013.8 hPa South 9.7 km/h 19.3 km/h 90 % 0 mm 0 W/m2
02:17 12.7 °C 11.1 °C 1013.8 hPa South 9.7 km/h 22.5 km/h 90 % 0 mm 0 W/m2
02:22 12.7 °C 11.1 °C 1013.8 hPa South 12.9 km/h 22.5 km/h 90 % 0 mm 0 W/m2
02:27 12.8 °C 11.2 °C 1013.8 hPa South 12.9 km/h 25.7 km/h 90 % 0 mm 0 W/m2
02:32 12.8 °C 11.2 °C 1013.8 hPa South 12.9 km/h 25.7 km/h 90 % 0 mm 0 W/m2
02:37 12.8 °C 11.2 °C 1013.4 hPa South 12.9 km/h 24.1 km/h 90 % 0 mm 0 W/m2
02:42 12.8 °C 11.2 °C 1013.4 hPa South 12.9 km/h 24.1 km/h 90 % 0 mm 0 W/m2
02:47 12.9 °C 11.3 °C 1013.8 hPa South 14.5 km/h 25.7 km/h 90 % 0 mm 0 W/m2
02:52 12.9 °C 11.3 °C 1013.4 hPa South 12.9 km/h 25.7 km/h 90 % 0 mm 0 W/m2
02:57 13 °C 11.4 °C 1013.4 hPa South 12.9 km/h 24.1 km/h 90 % 0 mm 0 W/m2
03:02 13 °C 11.4 °C 1013.4 hPa South 12.9 km/h 24.1 km/h 90 % 0 mm 0 W/m2
03:07 13.1 °C 11.5 °C 1013.4 hPa South 11.3 km/h 20.9 km/h 90 % 0 mm 0 W/m2
03:12 13.1 °C 11.5 °C 1013.1 hPa South 11.3 km/h 19.3 km/h 90 % 0 mm 0 W/m2
03:17 13.1 °C 11.7 °C 1013.1 hPa South 8 km/h 16.1 km/h 91 % 0 mm 0 W/m2
03:22 13.1 °C 11.7 °C 1013.1 hPa South 8 km/h 19.3 km/h 91 % 0 mm 0 W/m2
03:27 13.1 °C 11.7 °C 1013.1 hPa SSE 8 km/h 19.3 km/h 91 % 0 mm 0 W/m2
03:32 13.1 °C 11.7 °C 1013.1 hPa South 9.7 km/h 20.9 km/h 91 % 0 mm 0 W/m2
03:37 13.1 °C 11.7 °C 1012.8 hPa South 9.7 km/h 20.9 km/h 91 % 0 mm 0 W/m2
03:42 13.1 °C 11.8 °C 1012.8 hPa South 6.4 km/h 14.5 km/h 92 % 0 mm 0 W/m2
03:47 13.1 °C 11.8 °C 1012.8 hPa South 8 km/h 17.7 km/h 92 % 0 mm 0 W/m2
03:52 13.1 °C 11.8 °C 1012.8 hPa South 8 km/h 17.7 km/h 92 % 0 mm 0 W/m2
03:57 13.1 °C 11.8 °C 1012.8 hPa South 9.7 km/h 17.7 km/h 92 % 0 mm 0 W/m2
04:02 13.1 °C 12 °C 1012.8 hPa South 9.7 km/h 17.7 km/h 93 % 0 mm 0 W/m2
04:08 13.1 °C 12 °C 1012.8 hPa SSE 8 km/h 14.5 km/h 93 % 0 mm 0 W/m2
04:13 13.1 °C 12 °C 1012.8 hPa SSE 8 km/h 17.7 km/h 93 % 0 mm 0 W/m2
04:18 13.1 °C 12 °C 1012.8 hPa South 6.4 km/h 17.7 km/h 93 % 0 mm 0 W/m2
04:23 13.2 °C 12.3 °C 1012.4 hPa South 6.4 km/h 12.9 km/h 94 % 0 mm 0 W/m2
04:24 13.1 °C 12.2 °C 1012.4 hPa South 4.8 km/h 12.9 km/h 94 % 0 mm 0 W/m2
04:25 13.2 °C 12.3 °C 1012.4 hPa South 4.8 km/h 12.9 km/h 94 % 0 mm 0 W/m2
04:28 13.2 °C 12.3 °C 1012.4 hPa South 4.8 km/h 11.3 km/h 94 % 0 mm 0 W/m2
04:29 13.2 °C 12.3 °C 1012.4 hPa South 4.8 km/h 11.3 km/h 94 % 0 mm 0 W/m2
04:33 13.2 °C 12.3 °C 1012.4 hPa SSE 3.2 km/h 11.3 km/h 94 % 0 mm 0 W/m2
04:38 13.2 °C 12.3 °C 1012.4 hPa South 3.2 km/h 11.3 km/h 94 % 0 mm 0 W/m2
04:39 13.2 °C 12.3 °C 1012.4 hPa South 3.2 km/h 11.3 km/h 94 % 0 mm 0 W/m2
04:44 13.2 °C 12.3 °C 1012.4 hPa SSE 6.4 km/h 11.3 km/h 94 % 0 mm 0 W/m2
04:49 13.2 °C 12.3 °C 1012.4 hPa SSE 6.4 km/h 11.3 km/h 94 % 0 mm 0 W/m2
04:54 13.2 °C 12.3 °C 1012.4 hPa SSE 6.4 km/h 11.3 km/h 94 % 0 mm 0 W/m2
04:59 13.2 °C 12.3 °C 1012.4 hPa South 6.4 km/h 12.9 km/h 94 % 0 mm 0 W/m2
05:04 13.3 °C 12.5 °C 1012.1 hPa South 4.8 km/h 12.9 km/h 95 % 0 mm 0 W/m2
05:09 13.3 °C 12.5 °C 1012.1 hPa South 6.4 km/h 17.7 km/h 95 % 0 mm 0 W/m2
05:14 13.4 °C 12.6 °C 1012.1 hPa South 9.7 km/h 17.7 km/h 95 % 0 mm 0 W/m2
05:19 13.4 °C 12.6 °C 1012.1 hPa South 8 km/h 17.7 km/h 95 % 0 mm 0 W/m2
05:24 13.4 °C 12.6 °C 1011.7 hPa SSE 4.8 km/h 11.3 km/h 95 % 0 mm 0 W/m2
05:29 13.5 °C 12.7 °C 1011.7 hPa SE 4.8 km/h 12.9 km/h 95 % 0 mm 0 W/m2
05:34 13.5 °C 12.7 °C 1011.4 hPa ESE 6.4 km/h 12.9 km/h 95 % 0 mm 0 W/m2
05:39 13.4 °C 12.6 °C 1011.4 hPa East 6.4 km/h 12.9 km/h 95 % 0 mm 0 W/m2
05:44 13.5 °C 12.7 °C 1011.7 hPa ENE 4.8 km/h 9.7 km/h 95 % 0 mm 0 W/m2
05:49 13.5 °C 12.7 °C 1011.7 hPa ENE 4.8 km/h 9.7 km/h 95 % 0 mm 0 W/m2
05:54 13.6 °C 12.8 °C 1011.7 hPa ENE 3.2 km/h 9.7 km/h 95 % 0 mm 0 W/m2
05:59 13.6 °C 12.8 °C 1011.7 hPa ENE 3.2 km/h 11.3 km/h 95 % 0 mm 0 W/m2
06:04 13.6 °C 12.8 °C 1011.4 hPa ENE 3.2 km/h 11.3 km/h 95 % 0 mm 0 W/m2
06:09 13.7 °C 12.9 °C 1011.4 hPa East 4.8 km/h 11.3 km/h 95 % 0 mm 0 W/m2
06:14 13.7 °C 12.9 °C 1011.1 hPa East 6.4 km/h 12.9 km/h 95 % 0 mm 0 W/m2
06:19 13.7 °C 12.9 °C 1011.7 hPa ESE 4.8 km/h 12.9 km/h 95 % 0 mm 0 W/m2
06:24 13.8 °C 13 °C 1011.7 hPa SE 3.2 km/h 11.3 km/h 95 % 0 mm 0 W/m2
06:29 13.8 °C 13 °C 1011.7 hPa South 3.2 km/h 9.7 km/h 95 % 0 mm 0 W/m2
06:34 13.9 °C 13.1 °C 1011.7 hPa SSW 3.2 km/h 9.7 km/h 95 % 0 mm 0 W/m2
06:39 13.9 °C 13.1 °C 1011.7 hPa South 3.2 km/h 9.7 km/h 95 % 0 mm 0 W/m2
06:44 13.9 °C 13.1 °C 1012.1 hPa SSE 3.2 km/h 9.7 km/h 95 % 0 mm 0 W/m2
06:49 14 °C 13.4 °C 1012.1 hPa SSE 1.6 km/h 8 km/h 96 % 0 mm 0 W/m2
06:54 14 °C 13.4 °C 1012.1 hPa South 3.2 km/h 11.3 km/h 96 % 0 mm 0 W/m2
06:59 14.1 °C 13.4 °C 1012.1 hPa SSE 8 km/h 14.5 km/h 96 % 0 mm 0 W/m2
07:04 14.1 °C 13.4 °C 1011.7 hPa SSE 9.7 km/h 14.5 km/h 96 % 0 mm 0 W/m2
07:09 14.2 °C 13.6 °C 1011.7 hPa SE 6.4 km/h 12.9 km/h 96 % 0 mm 0 W/m2
07:14 14.2 °C 13.6 °C 1011.7 hPa SE 4.8 km/h 12.9 km/h 96 % 0 mm 0 W/m2
07:19 14.2 °C 13.6 °C 1011.7 hPa SE 4.8 km/h 12.9 km/h 96 % 0 mm 0 W/m2
07:24 14.3 °C 13.7 °C 1011.7 hPa SSE 6.4 km/h 12.9 km/h 96 % 0 mm 5 W/m2
07:30 14.3 °C 13.7 °C 1011.7 hPa SSE 8 km/h 12.9 km/h 96 % 0 mm 5 W/m2
07:35 14.3 °C 13.7 °C 1011.7 hPa SSE 8 km/h 12.9 km/h 96 % 0 mm 9 W/m2
07:40 14.3 °C 13.7 °C 1011.4 hPa SSE 6.4 km/h 12.9 km/h 96 % 0 mm 14 W/m2
07:45 14.3 °C 13.7 °C 1011.7 hPa SE 4.8 km/h 12.9 km/h 96 % 0 mm 18 W/m2
07:50 14.3 °C 13.7 °C 1011.4 hPa SE 4.8 km/h 11.3 km/h 96 % 0 mm 16 W/m2
07:55 14.4 °C 13.8 °C 1011.7 hPa SSE 4.8 km/h 11.3 km/h 96 % 0 mm 18 W/m2
08:00 14.4 °C 13.8 °C 1011.7 hPa South 4.8 km/h 11.3 km/h 96 % 0 mm 28 W/m2
08:05 14.4 °C 13.8 °C 1011.7 hPa South 6.4 km/h 14.5 km/h 96 % 0 mm 26 W/m2
08:10 14.5 °C 13.9 °C 1011.7 hPa SSW 8 km/h 14.5 km/h 96 % 0 mm 23 W/m2
08:15 14.6 °C 13.9 °C 1011.7 hPa SSW 8 km/h 11.3 km/h 96 % 0 mm 21 W/m2
08:20 14.6 °C 13.9 °C 1011.7 hPa South 8 km/h 12.9 km/h 96 % 0 mm 30 W/m2
08:25 14.6 °C 13.9 °C 1011.7 hPa South 8 km/h 14.5 km/h 96 % 0 mm 40 W/m2
08:30 14.7 °C 14.1 °C 1011.7 hPa South 8 km/h 14.5 km/h 96 % 0 mm 58 W/m2
08:35 14.7 °C 14.1 °C 1011.4 hPa South 6.4 km/h 14.5 km/h 96 % 0 mm 70 W/m2
08:40 14.8 °C 14.2 °C 1011.7 hPa South 6.4 km/h 14.5 km/h 96 % 0 mm 47 W/m2
08:45 14.8 °C 14.2 °C 1011.7 hPa South 8 km/h 14.5 km/h 96 % 0 mm 28 W/m2
08:50 14.8 °C 14.2 °C 1011.7 hPa South 11.3 km/h 19.3 km/h 96 % 0 mm 19 W/m2
08:55 14.9 °C 14.1 °C 1011.7 hPa South 9.7 km/h 19.3 km/h 95 % 0 mm 19 W/m2
09:00 14.9 °C 14.1 °C 1011.7 hPa SSE 8 km/h 17.7 km/h 95 % 0 mm 19 W/m2
09:05 15 °C 14.2 °C 1011.7 hPa SSE 8 km/h 17.7 km/h 95 % 0 mm 26 W/m2
09:10 15 °C 14.2 °C 1011.7 hPa SSW 8 km/h 16.1 km/h 95 % 0.25 mm 26 W/m2
09:15 14.9 °C 13.9 °C 1011.7 hPa SSW 6.4 km/h 16.1 km/h 94 % 0.51 mm 18 W/m2
09:20 14.9 °C 13.9 °C 1011.7 hPa SSW 8 km/h 17.7 km/h 94 % 0.51 mm 25 W/m2
09:25 14.9 °C 13.9 °C 1011.7 hPa SSW 11.3 km/h 22.5 km/h 94 % 0.76 mm 30 W/m2
09:30 14.8 °C 13.8 °C 1012.1 hPa SSW 11.3 km/h 22.5 km/h 94 % 1.02 mm 28 W/m2
09:35 14.8 °C 13.8 °C 1012.1 hPa SSW 9.7 km/h 20.9 km/h 94 % 1.27 mm 33 W/m2
09:40 14.8 °C 13.8 °C 1012.1 hPa SSW 8 km/h 12.9 km/h 94 % 1.27 mm 49 W/m2
09:45 14.8 °C 13.8 °C 1011.7 hPa SSW 6.4 km/h 12.9 km/h 94 % 1.52 mm 58 W/m2
09:50 14.9 °C 13.9 °C 1012.4 hPa SW 8 km/h 17.7 km/h 94 % 1.52 mm 14 W/m2
09:55 14.2 °C 12.9 °C 1012.4 hPa West 14.5 km/h 32.2 km/h 92 % 1.52 mm 12 W/m2
10:00 13.6 °C 12.3 °C 1012.8 hPa West 17.7 km/h 32.2 km/h 92 % 1.52 mm 19 W/m2
10:05 13.3 °C 12.2 °C 1012.4 hPa West 11.3 km/h 25.7 km/h 93 % 1.78 mm 39 W/m2
10:10 13.2 °C 12.1 °C 1012.4 hPa West 4.8 km/h 16.1 km/h 93 % 1.78 mm 53 W/m2
10:15 13.2 °C 12.3 °C 1012.1 hPa West 3.2 km/h 11.3 km/h 94 % 1.78 mm 60 W/m2
10:20 13.1 °C 12.2 °C 1012.1 hPa WNW 3.2 km/h 9.7 km/h 94 % 1.52 mm 47 W/m2
10:25 13.1 °C 12.2 °C 1012.1 hPa WNW 3.2 km/h 9.7 km/h 94 % 1.52 mm 51 W/m2
10:30 13.1 °C 12.2 °C 1012.1 hPa WNW 3.2 km/h 8 km/h 94 % 1.27 mm 47 W/m2
10:35 13 °C 12.1 °C 1012.1 hPa WNW 4.8 km/h 11.3 km/h 94 % 1.27 mm 44 W/m2
10:40 12.9 °C 11.9 °C 1012.1 hPa WNW 6.4 km/h 11.3 km/h 94 % 1.27 mm 54 W/m2
10:45 12.9 °C 11.9 °C 1012.1 hPa WNW 6.4 km/h 11.3 km/h 94 % 1.02 mm 90 W/m2
10:50 12.9 °C 11.9 °C 1012.1 hPa West 4.8 km/h 12.9 km/h 94 % 1.02 mm 90 W/m2
10:55 12.9 °C 11.9 °C 1012.1 hPa West 4.8 km/h 12.9 km/h 94 % 0.76 mm 76 W/m2
11:00 12.9 °C 11.9 °C 1012.1 hPa West 4.8 km/h 11.3 km/h 94 % 0.51 mm 88 W/m2
11:05 12.9 °C 11.9 °C 1012.1 hPa West 3.2 km/h 9.7 km/h 94 % 0.51 mm 76 W/m2
11:10 13 °C 12.1 °C 1012.1 hPa West 1.6 km/h 9.7 km/h 94 % 0.51 mm 84 W/m2
11:15 13.1 °C 12.2 °C 1012.1 hPa WNW 1.6 km/h 8 km/h 94 % 0.51 mm 90 W/m2
11:20 13.1 °C 12.2 °C 1012.1 hPa WNW 1.6 km/h 8 km/h 94 % 0.51 mm 81 W/m2
11:25 13.1 °C 12.2 °C 1012.4 hPa West 3.2 km/h 9.7 km/h 94 % 0.51 mm 60 W/m2
11:30 13 °C 12.1 °C 1012.4 hPa West 4.8 km/h 11.3 km/h 94 % 0.25 mm 63 W/m2
11:31 13 °C 12.1 °C 1012.4 hPa West 4.8 km/h 11.3 km/h 94 % 0.25 mm 63 W/m2
11:36 13 °C 12.1 °C 1012.4 hPa West 3.2 km/h 11.3 km/h 94 % 0.25 mm 88 W/m2
11:41 13.1 °C 12.2 °C 1012.1 hPa WNW 1.6 km/h 8 km/h 94 % 0.25 mm 86 W/m2
11:46 13.1 °C 12.2 °C 1012.4 hPa WNW 1.6 km/h 6.4 km/h 94 % 0.25 mm 88 W/m2
11:51 13.1 °C 12.2 °C 1012.4 hPa Calm   6.4 km/h 94 % 0.25 mm 128 W/m2
11:56 13.2 °C 12.3 °C 1012.4 hPa Calm   3.2 km/h 94 % 0.25 mm 151 W/m2
12:01 13.4 °C 12.4 °C 1012.4 hPa Calm   3.2 km/h 94 % 0.25 mm 149 W/m2
12:06 13.4 °C 12.3 °C 1012.4 hPa Calm   1.6 km/h 93 % 0.25 mm 144 W/m2
12:11 13.5 °C 12.4 °C 1012.4 hPa Calm   3.2 km/h 93 % 0 mm 202 W/m2
12:16 13.7 °C 12.6 °C 1012.1 hPa SW 3.2 km/h 11.3 km/h 93 % 0 mm 329 W/m2
12:21 13.9 °C 12.8 °C 1012.1 hPa SW 4.8 km/h 11.3 km/h 93 % 0 mm 230 W/m2
12:26 13.9 °C 12.6 °C 1012.1 hPa SSW 6.4 km/h 12.9 km/h 92 % 0 mm 236 W/m2
12:31 14 °C 12.7 °C 1012.1 hPa SSW 8 km/h 16.1 km/h 92 % 0 mm 234 W/m2
12:36 14.1 °C 12.7 °C 1012.1 hPa SSW 8 km/h 16.1 km/h 91 % 0 mm 237 W/m2
12:41 14.2 °C 12.6 °C 1012.4 hPa SSW 6.4 km/h 11.3 km/h 90 % 0 mm 279 W/m2
12:46 14.3 °C 12.7 °C 1012.1 hPa SSW 6.4 km/h 11.3 km/h 90 % 0 mm 425 W/m2
12:51 14.6 °C 13.2 °C 1012.1 hPa SW 4.8 km/h 11.3 km/h 91 % 0 mm 227 W/m2
12:56 14.8 °C 13 °C 1012.4 hPa SSW 6.4 km/h 14.5 km/h 89 % 0 mm 204 W/m2
13:01 15.1 °C 13.4 °C 1012.4 hPa SSW 9.7 km/h 19.3 km/h 90 % 0 mm 216 W/m2
13:06 15.2 °C 13.2 °C 1012.4 hPa SSW 9.7 km/h 19.3 km/h 88 % 0 mm 209 W/m2
13:11 15.3 °C 13.2 °C 1012.1 hPa SW 8 km/h 14.5 km/h 87 % 0 mm 169 W/m2
13:16 15.3 °C 12.4 °C 1012.1 hPa WSW 9.7 km/h 22.5 km/h 83 % 0 mm 220 W/m2
13:21 15.3 °C 12.2 °C 1012.1 hPa WSW 12.9 km/h 22.5 km/h 82 % 0 mm 221 W/m2
13:26 15.3 °C 12.2 °C 1012.4 hPa WSW 12.9 km/h 25.7 km/h 82 % 0 mm 323 W/m2
13:31 15.5 °C 12.3 °C 1012.1 hPa WSW 12.9 km/h 25.7 km/h 81 % 0 mm 381 W/m2
13:36 15.7 °C 12.3 °C 1012.1 hPa WSW 12.9 km/h 22.5 km/h 80 % 0 mm 295 W/m2
13:41 15.9 °C 12.3 °C 1012.1 hPa WSW 12.9 km/h 22.5 km/h 79 % 0 mm 647 W/m2
13:46 16.2 °C 12.2 °C 1012.1 hPa WSW 14.5 km/h 24.1 km/h 77 % 0 mm 617 W/m2
13:51 16.6 °C 12.3 °C 1012.1 hPa WSW 14.5 km/h 24.1 km/h 76 % 0 mm 408 W/m2
13:56 16.8 °C 12.1 °C 1012.1 hPa WSW 12.9 km/h 24.1 km/h 74 % 0 mm 482 W/m2
14:01 16.9 °C 12 °C 1012.1 hPa WSW 12.9 km/h 24.1 km/h 73 % 0 mm 381 W/m2
14:06 17 °C 12.1 °C 1012.1 hPa WSW 12.9 km/h 24.1 km/h 73 % 0 mm 290 W/m2
14:07 17 °C 12.3 °C 1012.1 hPa WSW 12.9 km/h 24.1 km/h 74 % 0 mm 399 W/m2
14:12 17.1 °C 12.4 °C 1012.4 hPa WSW 11.3 km/h 22.5 km/h 74 % 0 mm 207 W/m2
14:17 16.9 °C 12.4 °C 1012.4 hPa SW 11.3 km/h 22.5 km/h 75 % 0 mm 141 W/m2
14:22 16.8 °C 12.6 °C 1012.1 hPa WSW 9.7 km/h 19.3 km/h 76 % 0 mm 155 W/m2
14:27 16.7 °C 12.4 °C 1012.1 hPa West 8 km/h 12.9 km/h 76 % 0 mm 234 W/m2
14:32 16.7 °C 12.4 °C 1012.1 hPa WNW 9.7 km/h 19.3 km/h 76 % 0 mm 102 W/m2
14:37 16.3 °C 12.3 °C 1012.4 hPa West 14.5 km/h 29 km/h 77 % 0 mm 79 W/m2
14:42 15.7 °C 12.1 °C 1012.1 hPa West 14.5 km/h 29 km/h 79 % 0.25 mm 135 W/m2
14:47 15.3 °C 11.9 °C 1012.1 hPa West 11.3 km/h 17.7 km/h 80 % 0.25 mm 158 W/m2
14:48 15.2 °C 11.8 °C 1012.1 hPa West 11.3 km/h 17.7 km/h 80 % 0.25 mm 158 W/m2
14:53 15.1 °C 11.9 °C 1012.1 hPa West 9.7 km/h 17.7 km/h 81 % 0.25 mm 218 W/m2
14:58 15.1 °C 12.1 °C 1012.1 hPa WSW 8 km/h 14.5 km/h 82 % 0.25 mm 186 W/m2
15:03 15.3 °C 12.6 °C 1012.1 hPa WSW 8 km/h 14.5 km/h 84 % 0.25 mm 496 W/m2
15:08 15.6 °C 12.9 °C 1012.1 hPa WSW 9.7 km/h 14.5 km/h 84 % 0.25 mm 490 W/m2
15:13 15.9 °C 13.2 °C 1012.1 hPa WSW 9.7 km/h 17.7 km/h 84 % 0.25 mm 482 W/m2
15:18 16.2 °C 13.1 °C 1012.4 hPa WSW 9.7 km/h 17.7 km/h 82 % 0.25 mm 469 W/m2
15:23 16.5 °C 13.1 °C 1012.4 hPa WSW 11.3 km/h 17.7 km/h 80 % 0.25 mm 466 W/m2
15:28 16.8 °C 12.7 °C 1012.4 hPa WSW 11.3 km/h 20.9 km/h 77 % 0.25 mm 508 W/m2
15:33 17.1 °C 12.6 °C 1012.4 hPa WSW 12.9 km/h 25.7 km/h 75 % 0.25 mm 452 W/m2
15:38 17.2 °C 11.7 °C 1012.4 hPa SW 16.1 km/h 25.7 km/h 70 % 0 mm 438 W/m2
15:43 17.3 °C 11.8 °C 1012.4 hPa SW 16.1 km/h 25.7 km/h 70 % 0 mm 439 W/m2
15:48 17.5 °C 11.5 °C 1012.4 hPa SW 14.5 km/h 25.7 km/h 68 % 0 mm 422 W/m2
15:53 17.5 °C 11.3 °C 1012.4 hPa WSW 14.5 km/h 25.7 km/h 67 % 0 mm 171 W/m2
15:58 17.4 °C 11.7 °C 1012.4 hPa WSW 14.5 km/h 25.7 km/h 69 % 0 mm 396 W/m2
16:03 17.4 °C 11.7 °C 1012.4 hPa WSW 14.5 km/h 25.7 km/h 69 % 0 mm 410 W/m2
16:04 17.4 °C 11.7 °C 1012.4 hPa WSW 14.5 km/h 25.7 km/h 69 % 0 mm 410 W/m2
16:09 17.4 °C 11.7 °C 1012.4 hPa WSW 12.9 km/h 20.9 km/h 69 % 0 mm 130 W/m2
16:14 17.3 °C 11.6 °C 1012.4 hPa WSW 11.3 km/h 20.9 km/h 69 % 0 mm 350 W/m2
16:19 17.3 °C 11.3 °C 1012.4 hPa WSW 14.5 km/h 25.7 km/h 68 % 0 mm 262 W/m2
16:24 17.2 °C 10.3 °C 1012.4 hPa SW 16.1 km/h 30.6 km/h 64 % 0 mm 285 W/m2
16:29 17.2 °C 10.1 °C 1012.4 hPa SW 16.1 km/h 30.6 km/h 63 % 0 mm 139 W/m2
16:34 17.1 °C 10.4 °C 1012.4 hPa SW 14.5 km/h 25.7 km/h 65 % 0 mm 251 W/m2
16:39 17.2 °C 10.3 °C 1012.4 hPa WSW 12.9 km/h 24.1 km/h 64 % 0 mm 251 W/m2
16:44 17.2 °C 10.1 °C 1012.4 hPa WSW 12.9 km/h 24.1 km/h 63 % 0 mm 116 W/m2
16:49 17 °C 9.9 °C 1012.4 hPa WSW 12.9 km/h 22.5 km/h 63 % 0 mm 97 W/m2
16:54 16.8 °C 9.9 °C 1012.4 hPa WSW 12.9 km/h 22.5 km/h 64 % 0 mm 93 W/m2
16:59 16.6 °C 10 °C 1012.4 hPa WSW 11.3 km/h 22.5 km/h 65 % 0 mm 95 W/m2
17:04 16.4 °C 9.8 °C 1012.4 hPa WSW 11.3 km/h 22.5 km/h 65 % 0 mm 79 W/m2
17:09 16.3 °C 9.9 °C 1012.4 hPa WSW 11.3 km/h 17.7 km/h 66 % 0 mm 72 W/m2
17:14 16.3 °C 10.2 °C 1012.8 hPa WSW 11.3 km/h 19.3 km/h 67 % 0 mm 77 W/m2
17:19 16.2 °C 10.3 °C 1012.8 hPa WSW 9.7 km/h 19.3 km/h 68 % 0 mm 84 W/m2
17:24 16.1 °C 10.4 °C 1012.8 hPa WSW 9.7 km/h 16.1 km/h 69 % 0 mm 74 W/m2
17:29 16 °C 9.9 °C 1012.8 hPa SW 14.5 km/h 35.4 km/h 67 % 0 mm 63 W/m2
17:34 15.8 °C 9.7 °C 1012.8 hPa SW 16.1 km/h 35.4 km/h 67 % 0 mm 54 W/m2
17:39 15.7 °C 9.1 °C 1012.8 hPa WSW 16.1 km/h 33.8 km/h 65 % 0 mm 40 W/m2
17:44 15.6 °C 9.1 °C 1012.8 hPa WSW 16.1 km/h 33.8 km/h 65 % 0 mm 33 W/m2
17:49 15.3 °C 8.8 °C 1012.8 hPa WSW 14.5 km/h 22.5 km/h 65 % 0 mm 62 W/m2
17:54 15.3 °C 9 °C 1012.8 hPa WSW 12.9 km/h 22.5 km/h 66 % 0 mm 39 W/m2
17:59 15.1 °C 9 °C 1012.8 hPa WSW 11.3 km/h 17.7 km/h 67 % 0 mm 39 W/m2
18:04 15 °C 8.9 °C 1012.8 hPa SW 11.3 km/h 17.7 km/h 67 % 0 mm 33 W/m2
18:09 14.8 °C 8.9 °C 1012.8 hPa SW 11.3 km/h 20.9 km/h 68 % 0 mm 26 W/m2
18:14 14.7 °C 8.8 °C 1012.8 hPa SW 11.3 km/h 20.9 km/h 68 % 0 mm 23 W/m2
18:19 14.5 °C 8.7 °C 1012.8 hPa WSW 9.7 km/h 16.1 km/h 68 % 0 mm 21 W/m2
18:24 14.4 °C 8.6 °C 1013.1 hPa WSW 9.7 km/h 16.1 km/h 68 % 0 mm 16 W/m2
18:29 14.3 °C 8.7 °C 1012.8 hPa WSW 9.7 km/h 16.1 km/h 69 % 0 mm 12 W/m2
18:34 14.2 °C 8.8 °C 1012.8 hPa WSW 8 km/h 16.1 km/h 70 % 0 mm 9 W/m2
18:39 14 °C 8.6 °C 1013.1 hPa WSW 6.4 km/h 14.5 km/h 70 % 0 mm 9 W/m2
18:44 13.9 °C 8.7 °C 1013.1 hPa SW 6.4 km/h 14.5 km/h 71 % 0 mm 7 W/m2
18:49 13.8 °C 8.8 °C 1013.1 hPa SW 8 km/h 14.5 km/h 72 % 0 mm 0 W/m2
18:50 13.8 °C 8.8 °C 1013.1 hPa SW 8 km/h 14.5 km/h 72 % 0 mm 0 W/m2
18:55 13.6 °C 8.8 °C 1013.1 hPa SW 6.4 km/h 11.3 km/h 73 % 0 mm 0 W/m2
19:00 13.5 °C 8.9 °C 1013.1 hPa SW 4.8 km/h 11.3 km/h 74 % 0 mm 0 W/m2
19:05 13.4 °C 8.8 °C 1013.1 hPa SW 4.8 km/h 11.3 km/h 74 % 0 mm 0 W/m2
19:10 13.3 °C 8.9 °C 1013.1 hPa SW 3.2 km/h 9.7 km/h 75 % 0 mm 0 W/m2
19:15 13.3 °C 8.9 °C 1013.1 hPa SSW 1.6 km/h 8 km/h 75 % 0 mm 0 W/m2
19:20 13.1 °C 8.9 °C 1013.1 hPa South 1.6 km/h 8 km/h 76 % 0 mm 0 W/m2
19:25 13 °C 8.9 °C 1013.4 hPa South 3.2 km/h 8 km/h 76 % 0 mm 0 W/m2
19:30 12.9 °C 8.9 °C 1013.4 hPa SSW 4.8 km/h 11.3 km/h 77 % 0 mm 0 W/m2
19:35 12.9 °C 8.9 °C 1013.4 hPa SW 4.8 km/h 11.3 km/h 77 % 0 mm 0 W/m2
19:40 12.8 °C 8.9 °C 1013.4 hPa SW 3.2 km/h 9.7 km/h 77 % 0 mm 0 W/m2
19:45 12.8 °C 8.9 °C 1013.4 hPa SW 1.6 km/h 9.7 km/h 77 % 0 mm 0 W/m2
19:50 12.7 °C 8.8 °C 1013.4 hPa West 1.6 km/h 8 km/h 77 % 0 mm 0 W/m2
19:55 12.7 °C 8.9 °C 1013.4 hPa West 1.6 km/h 8 km/h 78 % 0 mm 0 W/m2
20:00 12.7 °C 8.9 °C 1013.4 hPa WSW 1.6 km/h 9.7 km/h 78 % 0 mm 0 W/m2
20:05 12.7 °C 8.9 °C 1013.4 hPa SW 1.6 km/h 9.7 km/h 78 % 0 mm 0 W/m2
20:10 12.7 °C 8.9 °C 1013.4 hPa SW 3.2 km/h 9.7 km/h 78 % 0 mm 0 W/m2
20:15 12.7 °C 8.9 °C 1013.4 hPa SW 3.2 km/h 9.7 km/h 78 % 0 mm 0 W/m2
20:20 12.6 °C 9.1 °C 1013.4 hPa SSW 1.6 km/h 9.7 km/h 79 % 0 mm 0 W/m2
20:25 12.6 °C 9.1 °C 1013.4 hPa SW 3.2 km/h 14.5 km/h 79 % 0 mm 0 W/m2
20:30 12.6 °C 9.1 °C 1013.4 hPa SW 4.8 km/h 14.5 km/h 79 % 0 mm 0 W/m2
20:36 12.6 °C 9.1 °C 1013.4 hPa SW 3.2 km/h 11.3 km/h 79 % 0 mm 0 W/m2
20:41 12.5 °C 8.9 °C 1013.8 hPa Calm   6.4 km/h 79 % 0 mm 0 W/m2
20:46 12.4 °C 9.1 °C 1013.8 hPa Calm   1.6 km/h 80 % 0 mm 0 W/m2
20:51 12.2 °C 8.8 °C 1013.8 hPa Calm   1.6 km/h 80 % 0 mm 0 W/m2
20:56 12.1 °C 8.9 °C 1013.8 hPa Calm   1.6 km/h 81 % 0 mm 0 W/m2
21:01 11.9 °C 8.9 °C 1013.8 hPa Calm   4.8 km/h 82 % 0 mm 0 W/m2
21:06 11.8 °C 8.8 °C 1013.8 hPa SSW 1.6 km/h 8 km/h 82 % 0 mm 0 W/m2
21:11 11.7 °C 8.6 °C 1013.8 hPa South 3.2 km/h 11.3 km/h 81 % 0 mm 0 W/m2
21:16 11.8 °C 8.7 °C 1013.8 hPa SSW 4.8 km/h 11.3 km/h 81 % 0 mm 0 W/m2
21:21 11.8 °C 8.7 °C 1013.8 hPa SSW 3.2 km/h 9.7 km/h 81 % 0 mm 0 W/m2
21:26 11.7 °C 8.6 °C 1013.8 hPa SSW 3.2 km/h 6.4 km/h 81 % 0 mm 0 W/m2
21:31 11.7 °C 8.6 °C 1014.1 hPa SW 3.2 km/h 12.9 km/h 81 % 0 mm 0 W/m2
21:36 11.7 °C 8.4 °C 1014.1 hPa SW 4.8 km/h 12.9 km/h 80 % 0 mm 0 W/m2
21:41 11.8 °C 8.4 °C 1014.1 hPa SW 6.4 km/h 12.9 km/h 80 % 0 mm 0 W/m2
21:46 11.8 °C 8.4 °C 1013.8 hPa WSW 8 km/h 14.5 km/h 80 % 0 mm 0 W/m2
21:51 11.8 °C 8.4 °C 1013.8 hPa WSW 9.7 km/h 14.5 km/h 80 % 0 mm 0 W/m2
21:56 11.8 °C 8.4 °C 1013.8 hPa WSW 9.7 km/h 14.5 km/h 80 % 0 mm 0 W/m2
22:01 11.8 °C 8.4 °C 1013.8 hPa WSW 8 km/h 14.5 km/h 80 % 0 mm 0 W/m2
22:06 11.7 °C 8.6 °C 1013.8 hPa WSW 8 km/h 12.9 km/h 81 % 0 mm 0 W/m2
22:11 11.6 °C 8.4 °C 1013.8 hPa SW 6.4 km/h 12.9 km/h 81 % 0 mm 0 W/m2
22:16 11.5 °C 8.6 °C 1013.8 hPa SW 4.8 km/h 9.7 km/h 82 % 0 mm 0 W/m2
22:21 11.4 °C 8.4 °C 1013.8 hPa SW 3.2 km/h 9.7 km/h 82 % 0 mm 0 W/m2
22:26 11.4 °C 8.6 °C 1013.8 hPa SW 3.2 km/h 8 km/h 83 % 0 mm 0 W/m2
22:31 11.3 °C 8.5 °C 1013.8 hPa SW 4.8 km/h 11.3 km/h 83 % 0 mm 0 W/m2
22:36 11.3 °C 8.5 °C 1013.8 hPa SW 3.2 km/h 11.3 km/h 83 % 0 mm 0 W/m2
22:41 11.2 °C 8.6 °C 1013.8 hPa SW 3.2 km/h 11.3 km/h 84 % 0 mm 0 W/m2
22:46 11.1 °C 8.5 °C 1014.1 hPa SW 4.8 km/h 11.3 km/h 84 % 0 mm 0 W/m2
22:51 11 °C 8.4 °C 1013.8 hPa SW 6.4 km/h 9.7 km/h 84 % 0 mm 0 W/m2
22:56 10.9 °C 8.5 °C 1014.1 hPa SW 4.8 km/h 9.7 km/h 85 % 0 mm 0 W/m2
23:01 10.8 °C 8.4 °C 1014.1 hPa SW 4.8 km/h 9.7 km/h 85 % 0 mm 0 W/m2
23:06 10.6 °C 8.2 °C 1014.1 hPa SW 4.8 km/h 8 km/h 85 % 0 mm 0 W/m2
23:11 10.6 °C 8.3 °C 1014.1 hPa SW 6.4 km/h 12.9 km/h 86 % 0 mm 0 W/m2
23:16 10.4 °C 8.2 °C 1014.1 hPa SW 6.4 km/h 12.9 km/h 86 % 0 mm 0 W/m2
23:21 10.3 °C 8.1 °C 1014.1 hPa SW 4.8 km/h 9.7 km/h 86 % 0 mm 0 W/m2
23:26 10.2 °C 7.9 °C 1014.1 hPa WSW 6.4 km/h 11.3 km/h 86 % 0 mm 0 W/m2
23:31 10.1 °C 8.1 °C 1014.1 hPa WSW 8 km/h 12.9 km/h 87 % 0 mm 0 W/m2
23:36 10.1 °C 8.1 °C 1014.4 hPa SW 6.4 km/h 12.9 km/h 87 % 0 mm 0 W/m2
23:41 10.1 °C 8.1 °C 1014.1 hPa SW 6.4 km/h 12.9 km/h 87 % 0 mm 0 W/m2
23:46 10.1 °C 8.1 °C 1014.1 hPa SW 6.4 km/h 11.3 km/h 87 % 0 mm 0 W/m2
23:51 10 °C 7.9 °C 1014.1 hPa SW 6.4 km/h 11.3 km/h 87 % 0 mm 0 W/m2
23:56 10 °C 7.9 °C 1014.1 hPa SW 6.4 km/h 11.3 km/h 87 % 0 mm 0 W/m2
Delerius-Weather
Compliments of Weather Underground - 2.25 mb

Data updates at regular intervals.